sensor_id;sensor_type;location;lat;lon;timestamp;pressure;altitude;pressure_sealevel;temperature;humidity
59513;BME280;45330;51.634;5.562;2023-06-26T00:01:29;101108.16;;;22.98;95.78
59513;BME280;45330;51.634;5.562;2023-06-26T00:03:56;101119.69;;;22.96;96.37
59513;BME280;45330;51.634;5.562;2023-06-26T00:06:22;101120.94;;;23.07;96.06
59513;BME280;45330;51.634;5.562;2023-06-26T00:08:53;101116.47;;;22.91;96.72
59513;BME280;45330;51.634;5.562;2023-06-26T00:11:20;101114.19;;;22.84;95.67
59513;BME280;45330;51.634;5.562;2023-06-26T00:13:46;101135.88;;;22.92;94.29
59513;BME280;45330;51.634;5.562;2023-06-26T00:16:12;101137.44;;;22.96;92.92
59513;BME280;45330;51.634;5.562;2023-06-26T00:18:38;101131.88;;;23.01;93.03
59513;BME280;45330;51.634;5.562;2023-06-26T00:21:03;101105.22;;;22.86;92.46
59513;BME280;45330;51.634;5.562;2023-06-26T00:23:29;101126.81;;;22.96;92.52
59513;BME280;45330;51.634;5.562;2023-06-26T00:25:56;101123.50;;;22.92;92.68
59513;BME280;45330;51.634;5.562;2023-06-26T00:28:21;101126.91;;;22.94;91.35
59513;BME280;45330;51.634;5.562;2023-06-26T00:30:47;101118.00;;;22.95;90.41
59513;BME280;45330;51.634;5.562;2023-06-26T00:33:12;101110.28;;;22.91;90.68
59513;BME280;45330;51.634;5.562;2023-06-26T00:35:37;101111.31;;;22.88;89.32
59513;BME280;45330;51.634;5.562;2023-06-26T00:38:03;101124.16;;;22.96;89.73
59513;BME280;45330;51.634;5.562;2023-06-26T00:40:28;101118.22;;;22.91;88.46
59513;BME280;45330;51.634;5.562;2023-06-26T00:42:54;101114.81;;;22.89;89.18
59513;BME280;45330;51.634;5.562;2023-06-26T00:45:19;101116.63;;;22.88;88.61
59513;BME280;45330;51.634;5.562;2023-06-26T00:47:44;101113.34;;;22.83;89.28
59513;BME280;45330;51.634;5.562;2023-06-26T00:50:10;101116.34;;;22.77;89.31
59513;BME280;45330;51.634;5.562;2023-06-26T00:52:36;101113.22;;;22.69;88.87
59513;BME280;45330;51.634;5.562;2023-06-26T00:55:02;101115.63;;;22.73;88.59
59513;BME280;45330;51.634;5.562;2023-06-26T00:57:27;101125.31;;;22.74;88.31
59513;BME280;45330;51.634;5.562;2023-06-26T00:59:53;101103.00;;;22.61;88.48
59513;BME280;45330;51.634;5.562;2023-06-26T01:02:19;101110.97;;;22.61;89.23
59513;BME280;45330;51.634;5.562;2023-06-26T01:04:54;101113.78;;;22.58;88.63
59513;BME280;45330;51.634;5.562;2023-06-26T01:07:20;101119.72;;;22.63;89.63
59513;BME280;45330;51.634;5.562;2023-06-26T01:09:47;101123.63;;;22.56;89.43
59513;BME280;45330;51.634;5.562;2023-06-26T01:12:13;101128.94;;;22.56;90.24
59513;BME280;45330;51.634;5.562;2023-06-26T01:14:39;101109.44;;;22.39;90.05
59513;BME280;45330;51.634;5.562;2023-06-26T01:17:05;101134.41;;;22.35;91.16
59513;BME280;45330;51.634;5.562;2023-06-26T01:19:31;101127.19;;;22.20;91.08
59513;BME280;45330;51.634;5.562;2023-06-26T01:27:55;101139.00;;;21.95;93.01
59513;BME280;45330;51.634;5.562;2023-06-26T01:30:21;101136.19;;;21.98;93.78
59513;BME280;45330;51.634;5.562;2023-06-26T01:32:48;101136.66;;;21.89;94.46
59513;BME280;45330;51.634;5.562;2023-06-26T01:35:15;101145.38;;;21.91;95.32
59513;BME280;45330;51.634;5.562;2023-06-26T01:37:40;101155.13;;;21.90;95.08
59513;BME280;45330;51.634;5.562;2023-06-26T01:40:06;101162.59;;;21.82;94.97
59513;BME280;45330;51.634;5.562;2023-06-26T01:42:33;101145.16;;;21.59;97.00
59513;BME280;45330;51.634;5.562;2023-06-26T01:45:03;101144.78;;;21.48;98.36
59513;BME280;45330;51.634;5.562;2023-06-26T01:47:34;101148.00;;;21.35;98.68
59513;BME280;45330;51.634;5.562;2023-06-26T01:50:09;101152.41;;;21.35;98.92
59513;BME280;45330;51.634;5.562;2023-06-26T01:52:39;101173.59;;;21.35;99.55
59513;BME280;45330;51.634;5.562;2023-06-26T01:55:28;101179.25;;;21.27;99.69
59513;BME280;45330;51.634;5.562;2023-06-26T01:57:58;101182.19;;;21.21;100.00
59513;BME280;45330;51.634;5.562;2023-06-26T02:00:24;101170.44;;;21.07;100.00
59513;BME280;45330;51.634;5.562;2023-06-26T02:02:52;101189.88;;;21.06;100.00
59513;BME280;45330;51.634;5.562;2023-06-26T02:05:17;101180.72;;;20.95;100.00
59513;BME280;45330;51.634;5.562;2023-06-26T02:07:43;101180.13;;;20.88;100.00
59513;BME280;45330;51.634;5.562;2023-06-26T02:10:09;101188.97;;;20.87;100.00
59513;BME280;45330;51.634;5.562;2023-06-26T02:12:35;101194.06;;;20.92;100.00
59513;BME280;45330;51.634;5.562;2023-06-26T02:15:01;101194.16;;;20.90;100.00
59513;BME280;45330;51.634;5.562;2023-06-26T02:17:27;101179.72;;;20.77;100.00
59513;BME280;45330;51.634;5.562;2023-06-26T02:19:52;101174.66;;;20.72;100.00
59513;BME280;45330;51.634;5.562;2023-06-26T02:22:17;101195.59;;;20.77;100.00
59513;BME280;45330;51.634;5.562;2023-06-26T02:24:43;101181.19;;;20.62;100.00
59513;BME280;45330;51.634;5.562;2023-06-26T02:27:09;101193.22;;;20.70;100.00
59513;BME280;45330;51.634;5.562;2023-06-26T02:29:35;101178.84;;;20.55;100.00
59513;BME280;45330;51.634;5.562;2023-06-26T02:32:00;101190.16;;;20.59;100.00
59513;BME280;45330;51.634;5.562;2023-06-26T02:34:26;101173.16;;;20.44;100.00
59513;BME280;45330;51.634;5.562;2023-06-26T02:36:51;101195.69;;;20.53;100.00
59513;BME280;45330;51.634;5.562;2023-06-26T02:39:19;101195.06;;;20.46;100.00
59513;BME280;45330;51.634;5.562;2023-06-26T02:41:45;101191.72;;;20.43;100.00
59513;BME280;45330;51.634;5.562;2023-06-26T02:44:10;101208.34;;;20.45;100.00
59513;BME280;45330;51.634;5.562;2023-06-26T02:46:37;101187.06;;;20.27;100.00
59513;BME280;45330;51.634;5.562;2023-06-26T02:49:02;101175.94;;;20.19;100.00
59513;BME280;45330;51.634;5.562;2023-06-26T02:51:28;101208.34;;;20.24;100.00
59513;BME280;45330;51.634;5.562;2023-06-26T02:53:53;101213.78;;;20.19;100.00
59513;BME280;45330;51.634;5.562;2023-06-26T02:56:19;101213.06;;;20.16;100.00
59513;BME280;45330;51.634;5.562;2023-06-26T02:58:44;101218.59;;;20.10;100.00
59513;BME280;45330;51.634;5.562;2023-06-26T03:01:09;101199.66;;;19.98;100.00
59513;BME280;45330;51.634;5.562;2023-06-26T03:03:35;101206.13;;;19.91;100.00
59513;BME280;45330;51.634;5.562;2023-06-26T03:06:06;101214.53;;;20.01;100.00
59513;BME280;45330;51.634;5.562;2023-06-26T03:08:32;101219.69;;;20.04;100.00
59513;BME280;45330;51.634;5.562;2023-06-26T03:10:58;101207.00;;;19.92;100.00
59513;BME280;45330;51.634;5.562;2023-06-26T03:13:23;101208.81;;;19.90;100.00
59513;BME280;45330;51.634;5.562;2023-06-26T03:15:48;101227.69;;;20.02;100.00
59513;BME280;45330;51.634;5.562;2023-06-26T03:18:14;101203.47;;;19.91;100.00
59513;BME280;45330;51.634;5.562;2023-06-26T03:20:39;101222.66;;;19.96;100.00
59513;BME280;45330;51.634;5.562;2023-06-26T03:23:05;101229.88;;;19.91;100.00
59513;BME280;45330;51.634;5.562;2023-06-26T03:25:30;101226.38;;;19.91;100.00
59513;BME280;45330;51.634;5.562;2023-06-26T03:27:56;101213.63;;;19.78;100.00
59513;BME280;45330;51.634;5.562;2023-06-26T03:30:21;101232.09;;;19.80;100.00
59513;BME280;45330;51.634;5.562;2023-06-26T03:32:47;101234.66;;;19.81;100.00
59513;BME280;45330;51.634;5.562;2023-06-26T03:35:12;101223.41;;;19.76;100.00
59513;BME280;45330;51.634;5.562;2023-06-26T03:37:37;101223.47;;;19.75;100.00
59513;BME280;45330;51.634;5.562;2023-06-26T03:40:03;101223.47;;;19.75;100.00
59513;BME280;45330;51.634;5.562;2023-06-26T03:42:30;101224.97;;;19.82;100.00
59513;BME280;45330;51.634;5.562;2023-06-26T03:44:55;101224.31;;;19.75;100.00
59513;BME280;45330;51.634;5.562;2023-06-26T03:47:20;101227.81;;;19.76;100.00
59513;BME280;45330;51.634;5.562;2023-06-26T03:49:46;101215.75;;;19.68;100.00
59513;BME280;45330;51.634;5.562;2023-06-26T03:52:11;101230.44;;;19.76;100.00
59513;BME280;45330;51.634;5.562;2023-06-26T03:54:36;101214.00;;;19.69;100.00
59513;BME280;45330;51.634;5.562;2023-06-26T03:57:02;101234.13;;;19.71;100.00
59513;BME280;45330;51.634;5.562;2023-06-26T03:59:27;101236.81;;;19.70;100.00
59513;BME280;45330;51.634;5.562;2023-06-26T04:01:53;101231.72;;;19.65;100.00
59513;BME280;45330;51.634;5.562;2023-06-26T04:04:19;101243.06;;;19.67;100.00
59513;BME280;45330;51.634;5.562;2023-06-26T04:06:45;101234.50;;;19.62;100.00
59513;BME280;45330;51.634;5.562;2023-06-26T04:09:10;101244.09;;;19.63;100.00
59513;BME280;45330;51.634;5.562;2023-06-26T04:11:35;101256.25;;;19.69;100.00
59513;BME280;45330;51.634;5.562;2023-06-26T04:14:01;101258.75;;;19.72;100.00
59513;BME280;45330;51.634;5.562;2023-06-26T04:16:28;101244.22;;;19.60;100.00
59513;BME280;45330;51.634;5.562;2023-06-26T04:18:54;101265.72;;;19.75;100.00
59513;BME280;45330;51.634;5.562;2023-06-26T04:21:21;101273.47;;;19.79;100.00
59513;BME280;45330;51.634;5.562;2023-06-26T04:23:49;101272.69;;;19.76;100.00
59513;BME280;45330;51.634;5.562;2023-06-26T04:26:14;101280.31;;;19.85;100.00
59513;BME280;45330;51.634;5.562;2023-06-26T04:28:40;101277.44;;;19.91;100.00
59513;BME280;45330;51.634;5.562;2023-06-26T04:31:05;101282.63;;;20.16;100.00
59513;BME280;45330;51.634;5.562;2023-06-26T04:33:31;101279.03;;;20.62;100.00
59513;BME280;45330;51.634;5.562;2023-06-26T04:35:57;101269.00;;;21.13;100.00
59513;BME280;45330;51.634;5.562;2023-06-26T04:38:22;101293.84;;;21.50;100.00
59513;BME280;45330;51.634;5.562;2023-06-26T04:40:49;101292.44;;;21.62;100.00
59513;BME280;45330;51.634;5.562;2023-06-26T04:43:14;101272.13;;;22.00;100.00
59513;BME280;45330;51.634;5.562;2023-06-26T04:45:40;101286.09;;;22.59;100.00
59513;BME280;45330;51.634;5.562;2023-06-26T04:48:05;101283.81;;;22.88;97.82
59513;BME280;45330;51.634;5.562;2023-06-26T04:50:31;101295.97;;;22.92;97.37
59513;BME280;45330;51.634;5.562;2023-06-26T04:52:58;101303.50;;;22.65;98.62
59513;BME280;45330;51.634;5.562;2023-06-26T04:55:24;101295.38;;;22.51;99.23
59513;BME280;45330;51.634;5.562;2023-06-26T04:57:50;101309.31;;;22.73;98.52
59513;BME280;45330;51.634;5.562;2023-06-26T05:00:16;101289.16;;;22.87;97.61
59513;BME280;45330;51.634;5.562;2023-06-26T05:02:41;101317.63;;;23.20;96.88
59513;BME280;45330;51.634;5.562;2023-06-26T05:05:07;101326.31;;;23.90;93.46
59513;BME280;45330;51.634;5.562;2023-06-26T05:07:33;101318.44;;;24.05;91.16
59513;BME280;45330;51.634;5.562;2023-06-26T05:09:58;101320.69;;;24.12;90.13
59513;BME280;45330;51.634;5.562;2023-06-26T05:12:23;101303.91;;;24.74;87.59
59513;BME280;45330;51.634;5.562;2023-06-26T05:14:49;101314.41;;;24.92;85.17
59513;BME280;45330;51.634;5.562;2023-06-26T05:17:14;101320.13;;;24.54;85.07
59513;BME280;45330;51.634;5.562;2023-06-26T05:19:40;101337.13;;;24.51;85.72
59513;BME280;45330;51.634;5.562;2023-06-26T05:22:06;101316.63;;;24.21;85.54
59513;BME280;45330;51.634;5.562;2023-06-26T05:24:36;101327.34;;;23.88;86.96
59513;BME280;45330;51.634;5.562;2023-06-26T05:27:02;101343.97;;;23.58;88.70
59513;BME280;45330;51.634;5.562;2023-06-26T05:29:32;101320.94;;;23.23;89.75
59513;BME280;45330;51.634;5.562;2023-06-26T05:31:58;101343.91;;;23.07;90.73
59513;BME280;45330;51.634;5.562;2023-06-26T05:34:24;101327.88;;;22.73;91.46
59513;BME280;45330;51.634;5.562;2023-06-26T05:36:51;101339.56;;;23.74;89.20
59513;BME280;45330;51.634;5.562;2023-06-26T05:39:17;101328.47;;;24.47;83.61
59513;BME280;45330;51.634;5.562;2023-06-26T05:41:46;101353.03;;;24.21;84.53
59513;BME280;45330;51.634;5.562;2023-06-26T05:44:11;101348.19;;;23.62;86.01
59513;BME280;45330;51.634;5.562;2023-06-26T05:46:37;101363.22;;;23.28;88.22
59513;BME280;45330;51.634;5.562;2023-06-26T05:49:03;101365.03;;;23.78;86.97
59513;BME280;45330;51.634;5.562;2023-06-26T05:51:29;101361.75;;;24.23;85.26
59513;BME280;45330;51.634;5.562;2023-06-26T05:53:54;101368.84;;;25.02;81.36
59513;BME280;45330;51.634;5.562;2023-06-26T05:56:20;101389.25;;;26.20;76.08
59513;BME280;45330;51.634;5.562;2023-06-26T05:58:46;101360.81;;;27.02;71.03
59513;BME280;45330;51.634;5.562;2023-06-26T06:01:12;101366.00;;;27.83;66.38
59513;BME280;45330;51.634;5.562;2023-06-26T06:03:38;101384.09;;;28.05;63.19
59513;BME280;45330;51.634;5.562;2023-06-26T06:06:04;101367.53;;;27.48;64.79
59513;BME280;45330;51.634;5.562;2023-06-26T06:08:29;101387.47;;;27.94;62.41
59513;BME280;45330;51.634;5.562;2023-06-26T06:10:55;101373.31;;;28.55;60.17
59513;BME280;45330;51.634;5.562;2023-06-26T06:13:20;101394.50;;;29.31;58.19
59513;BME280;45330;51.634;5.562;2023-06-26T06:15:45;101397.19;;;29.31;55.94
59513;BME280;45330;51.634;5.562;2023-06-26T06:18:11;101406.09;;;28.58;58.32
59513;BME280;45330;51.634;5.562;2023-06-26T06:20:36;101413.53;;;28.79;56.72
59513;BME280;45330;51.634;5.562;2023-06-26T06:23:02;101393.53;;;29.32;55.47
59513;BME280;45330;51.634;5.562;2023-06-26T06:25:27;101411.44;;;30.01;53.81
59513;BME280;45330;51.634;5.562;2023-06-26T06:27:52;101420.34;;;30.24;52.78
59513;BME280;45330;51.634;5.562;2023-06-26T06:30:18;101416.66;;;30.02;52.94
59513;BME280;45330;51.634;5.562;2023-06-26T06:32:43;101423.09;;;30.22;51.33
59513;BME280;45330;51.634;5.562;2023-06-26T06:35:08;101435.50;;;30.69;50.07
59513;BME280;45330;51.634;5.562;2023-06-26T06:37:38;101423.47;;;30.52;50.23
59513;BME280;45330;51.634;5.562;2023-06-26T06:40:05;101422.13;;;30.35;49.77
59513;BME280;45330;51.634;5.562;2023-06-26T06:42:31;101429.31;;;30.57;48.43
59513;BME280;45330;51.634;5.562;2023-06-26T06:44:57;101439.47;;;30.31;48.90
59513;BME280;45330;51.634;5.562;2023-06-26T06:47:22;101420.94;;;30.16;48.75
59513;BME280;45330;51.634;5.562;2023-06-26T06:49:48;101446.50;;;30.66;48.39
59513;BME280;45330;51.634;5.562;2023-06-26T06:52:13;101436.53;;;30.22;48.71
59513;BME280;45330;51.634;5.562;2023-06-26T06:54:56;101430.19;;;30.23;49.93
59513;BME280;45330;51.634;5.562;2023-06-26T06:57:24;101437.28;;;30.13;48.99
59513;BME280;45330;51.634;5.562;2023-06-26T06:59:50;101438.13;;;30.14;48.77
59513;BME280;45330;51.634;5.562;2023-06-26T07:02:19;101447.06;;;29.56;50.11
59513;BME280;45330;51.634;5.562;2023-06-26T07:04:44;101438.56;;;28.54;52.18
59513;BME280;45330;51.634;5.562;2023-06-26T07:07:09;101459.94;;;27.65;53.58
59513;BME280;45330;51.634;5.562;2023-06-26T07:09:36;101466.09;;;26.57;57.06
59513;BME280;45330;51.634;5.562;2023-06-26T07:12:02;101471.97;;;25.61;60.36
59513;BME280;45330;51.634;5.562;2023-06-26T07:14:28;101464.09;;;24.97;61.48
59513;BME280;45330;51.634;5.562;2023-06-26T07:16:53;101470.31;;;24.48;63.15
59513;BME280;45330;51.634;5.562;2023-06-26T07:19:18;101463.25;;;23.97;67.12
59513;BME280;45330;51.634;5.562;2023-06-26T07:21:44;101465.63;;;23.69;69.23
59513;BME280;45330;51.634;5.562;2023-06-26T07:24:11;101465.22;;;23.76;70.57
59513;BME280;45330;51.634;5.562;2023-06-26T07:26:36;101486.22;;;24.16;70.79
59513;BME280;45330;51.634;5.562;2023-06-26T07:29:02;101490.31;;;24.39;71.13
59513;BME280;45330;51.634;5.562;2023-06-26T07:31:28;101474.44;;;24.38;69.37
59513;BME280;45330;51.634;5.562;2023-06-26T07:33:53;101491.59;;;24.48;69.17
59513;BME280;45330;51.634;5.562;2023-06-26T07:36:18;101457.88;;;24.48;69.61
59513;BME280;45330;51.634;5.562;2023-06-26T07:38:44;101480.41;;;24.91;69.75
59513;BME280;45330;51.634;5.562;2023-06-26T07:41:09;101497.16;;;24.93;68.42
59513;BME280;45330;51.634;5.562;2023-06-26T07:43:34;101479.03;;;24.83;68.28
59513;BME280;45330;51.634;5.562;2023-06-26T07:46:00;101505.91;;;24.79;67.92
59513;BME280;45330;51.634;5.562;2023-06-26T07:48:25;101511.41;;;24.92;68.96
59513;BME280;45330;51.634;5.562;2023-06-26T07:50:50;101498.72;;;24.97;68.15
59513;BME280;45330;51.634;5.562;2023-06-26T07:53:16;101516.72;;;25.24;68.38
59513;BME280;45330;51.634;5.562;2023-06-26T07:55:42;101509.84;;;25.36;67.57
59513;BME280;45330;51.634;5.562;2023-06-26T07:58:07;101502.03;;;25.16;67.24
59513;BME280;45330;51.634;5.562;2023-06-26T08:00:33;101523.84;;;25.07;69.29
59513;BME280;45330;51.634;5.562;2023-06-26T08:02:59;101521.97;;;24.61;69.28
59513;BME280;45330;51.634;5.562;2023-06-26T08:05:24;101513.53;;;23.85;70.74
59513;BME280;45330;51.634;5.562;2023-06-26T08:07:50;101535.00;;;23.62;73.04
59513;BME280;45330;51.634;5.562;2023-06-26T08:10:15;101529.38;;;23.51;74.39
59513;BME280;45330;51.634;5.562;2023-06-26T08:12:41;101509.47;;;23.23;73.52
59513;BME280;45330;51.634;5.562;2023-06-26T08:15:10;101520.84;;;23.44;72.64
59513;BME280;45330;51.634;5.562;2023-06-26T08:17:36;101519.88;;;23.64;71.64
59513;BME280;45330;51.634;5.562;2023-06-26T08:20:03;101521.06;;;23.94;69.21
59513;BME280;45330;51.634;5.562;2023-06-26T08:22:29;101529.09;;;24.43;68.66
59513;BME280;45330;51.634;5.562;2023-06-26T08:24:54;101539.16;;;24.88;66.33
59513;BME280;45330;51.634;5.562;2023-06-26T08:27:19;101548.19;;;25.01;63.17
59513;BME280;45330;51.634;5.562;2023-06-26T08:29:45;101548.63;;;25.09;60.26
59513;BME280;45330;51.634;5.562;2023-06-26T08:32:10;101543.28;;;24.77;57.02
59513;BME280;45330;51.634;5.562;2023-06-26T08:34:35;101562.34;;;24.86;57.81
59513;BME280;45330;51.634;5.562;2023-06-26T08:37:01;101556.00;;;24.55;58.04
59513;BME280;45330;51.634;5.562;2023-06-26T08:39:26;101553.44;;;24.36;59.52
59513;BME280;45330;51.634;5.562;2023-06-26T08:41:52;101561.38;;;24.20;59.25
59513;BME280;45330;51.634;5.562;2023-06-26T08:44:18;101556.69;;;24.07;60.21
59513;BME280;45330;51.634;5.562;2023-06-26T08:46:44;101542.69;;;23.86;59.88
59513;BME280;45330;51.634;5.562;2023-06-26T08:49:25;101562.16;;;23.87;60.53
59513;BME280;45330;51.634;5.562;2023-06-26T08:52:02;101567.59;;;23.66;60.31
59513;BME280;45330;51.634;5.562;2023-06-26T08:54:32;101570.38;;;23.45;60.56
59513;BME280;45330;51.634;5.562;2023-06-26T08:57:01;101569.28;;;23.50;59.93
59513;BME280;45330;51.634;5.562;2023-06-26T08:59:27;101559.16;;;23.58;61.92
59513;BME280;45330;51.634;5.562;2023-06-26T09:01:53;101563.03;;;23.87;60.72
59513;BME280;45330;51.634;5.562;2023-06-26T09:04:19;101572.03;;;24.02;58.13
59513;BME280;45330;51.634;5.562;2023-06-26T09:06:44;101577.09;;;23.89;56.04
59513;BME280;45330;51.634;5.562;2023-06-26T09:09:10;101585.88;;;23.91;56.15
59513;BME280;45330;51.634;5.562;2023-06-26T09:11:35;101580.63;;;23.90;56.61
59513;BME280;45330;51.634;5.562;2023-06-26T09:14:01;101585.25;;;24.04;57.22
59513;BME280;45330;51.634;5.562;2023-06-26T09:16:30;101584.00;;;24.11;56.39
59513;BME280;45330;51.634;5.562;2023-06-26T09:18:56;101586.63;;;24.28;57.23
59513;BME280;45330;51.634;5.562;2023-06-26T09:21:22;101584.72;;;24.48;58.24
59513;BME280;45330;51.634;5.562;2023-06-26T09:23:49;101598.22;;;24.78;57.20
59513;BME280;45330;51.634;5.562;2023-06-26T09:26:15;101601.34;;;24.87;55.69
59513;BME280;45330;51.634;5.562;2023-06-26T09:28:42;101583.72;;;24.84;56.69
59513;BME280;45330;51.634;5.562;2023-06-26T09:31:08;101578.75;;;24.94;56.20
59513;BME280;45330;51.634;5.562;2023-06-26T09:33:36;101595.75;;;25.07;56.27
59513;BME280;45330;51.634;5.562;2023-06-26T09:36:06;101567.31;;;24.76;54.79
59513;BME280;45330;51.634;5.562;2023-06-26T09:38:33;101606.22;;;24.94;54.38
59513;BME280;45330;51.634;5.562;2023-06-26T09:40:58;101625.88;;;24.76;53.13
59513;BME280;45330;51.634;5.562;2023-06-26T09:43:24;101598.88;;;24.66;53.35
59513;BME280;45330;51.634;5.562;2023-06-26T09:45:49;101617.69;;;24.96;53.88
59513;BME280;45330;51.634;5.562;2023-06-26T09:48:15;101620.91;;;25.35;53.04
59513;BME280;45330;51.634;5.562;2023-06-26T09:50:42;101621.25;;;25.45;51.52
59513;BME280;45330;51.634;5.562;2023-06-26T09:53:09;101630.25;;;25.42;52.03
59513;BME280;45330;51.634;5.562;2023-06-26T09:55:35;101624.50;;;25.34;50.86
59513;BME280;45330;51.634;5.562;2023-06-26T09:58:02;101645.03;;;25.48;50.80
59513;BME280;45330;51.634;5.562;2023-06-26T10:00:28;101635.59;;;25.42;49.91
59513;BME280;45330;51.634;5.562;2023-06-26T10:02:53;101637.84;;;25.50;49.10
59513;BME280;45330;51.634;5.562;2023-06-26T10:05:19;101624.16;;;25.40;49.19
59513;BME280;45330;51.634;5.562;2023-06-26T10:07:46;101645.50;;;25.23;49.48
59513;BME280;45330;51.634;5.562;2023-06-26T10:10:13;101643.78;;;25.22;49.63
59513;BME280;45330;51.634;5.562;2023-06-26T10:12:43;101647.91;;;25.11;49.44
59513;BME280;45330;51.634;5.562;2023-06-26T10:15:13;101649.09;;;25.06;48.44
59513;BME280;45330;51.634;5.562;2023-06-26T10:17:42;101645.00;;;25.16;48.24
59513;BME280;45330;51.634;5.562;2023-06-26T10:20:08;101646.69;;;25.34;48.71
59513;BME280;45330;51.634;5.562;2023-06-26T10:22:39;101640.88;;;25.26;49.45
59513;BME280;45330;51.634;5.562;2023-06-26T10:25:07;101658.31;;;25.16;49.93
59513;BME280;45330;51.634;5.562;2023-06-26T10:27:38;101656.63;;;24.81;50.15
59513;BME280;45330;51.634;5.562;2023-06-26T10:30:13;101642.41;;;24.65;49.78
59513;BME280;45330;51.634;5.562;2023-06-26T10:32:40;101649.19;;;24.71;49.64
59513;BME280;45330;51.634;5.562;2023-06-26T10:35:06;101659.63;;;24.75;49.24
59513;BME280;45330;51.634;5.562;2023-06-26T10:37:46;101646.91;;;24.80;49.15
59513;BME280;45330;51.634;5.562;2023-06-26T10:40:13;101661.16;;;24.79;47.81
59513;BME280;45330;51.634;5.562;2023-06-26T10:42:39;101645.59;;;24.72;47.43
59513;BME280;45330;51.634;5.562;2023-06-26T10:45:27;101660.06;;;24.83;48.03
59513;BME280;45330;51.634;5.562;2023-06-26T10:47:53;101653.59;;;25.05;48.15
59513;BME280;45330;51.634;5.562;2023-06-26T10:50:29;101675.03;;;25.36;47.26
59513;BME280;45330;51.634;5.562;2023-06-26T10:56:00;101676.34;;;25.44;47.07
59513;BME280;45330;51.634;5.562;2023-06-26T11:03:37;101669.41;;;25.24;43.50
59513;BME280;45330;51.634;5.562;2023-06-26T11:06:19;101674.97;;;25.04;43.99
59513;BME280;45330;51.634;5.562;2023-06-26T11:09:09;101667.91;;;25.03;44.23
59513;BME280;45330;51.634;5.562;2023-06-26T11:14:23;101690.94;;;25.37;43.82
59513;BME280;45330;51.634;5.562;2023-06-26T11:16:48;101678.31;;;25.41;43.47
59513;BME280;45330;51.634;5.562;2023-06-26T11:19:16;101687.00;;;25.44;43.08
59513;BME280;45330;51.634;5.562;2023-06-26T11:21:41;101674.91;;;25.21;42.75
59513;BME280;45330;51.634;5.562;2023-06-26T11:24:08;101701.19;;;25.11;43.62
59513;BME280;45330;51.634;5.562;2023-06-26T11:26:43;101700.13;;;24.98;43.46
59513;BME280;45330;51.634;5.562;2023-06-26T11:29:10;101682.59;;;24.94;42.90
59513;BME280;45330;51.634;5.562;2023-06-26T11:31:41;101696.34;;;25.36;43.82
59513;BME280;45330;51.634;5.562;2023-06-26T11:34:08;101714.31;;;25.64;42.11
59513;BME280;45330;51.634;5.562;2023-06-26T11:36:35;101703.50;;;25.67;42.66
59513;BME280;45330;51.634;5.562;2023-06-26T11:39:04;101717.69;;;25.67;43.23
59513;BME280;45330;51.634;5.562;2023-06-26T11:41:38;101698.84;;;25.55;44.26
59513;BME280;45330;51.634;5.562;2023-06-26T11:44:05;101731.00;;;25.83;44.26
59513;BME280;45330;51.634;5.562;2023-06-26T11:46:32;101723.47;;;25.60;43.24
59513;BME280;45330;51.634;5.562;2023-06-26T11:48:58;101729.66;;;25.27;43.07
59513;BME280;45330;51.634;5.562;2023-06-26T11:51:26;101720.88;;;24.91;44.20
59513;BME280;45330;51.634;5.562;2023-06-26T11:53:52;101741.97;;;24.78;44.58
59513;BME280;45330;51.634;5.562;2023-06-26T11:56:18;101754.63;;;24.91;44.81
59513;BME280;45330;51.634;5.562;2023-06-26T11:58:57;101751.81;;;24.94;45.78
59513;BME280;45330;51.634;5.562;2023-06-26T12:01:23;101748.78;;;24.84;45.63
59513;BME280;45330;51.634;5.562;2023-06-26T12:03:50;101733.13;;;24.60;43.24
59513;BME280;45330;51.634;5.562;2023-06-26T12:06:16;101742.25;;;24.55;42.99
59513;BME280;45330;51.634;5.562;2023-06-26T12:08:42;101733.97;;;24.43;43.20
59513;BME280;45330;51.634;5.562;2023-06-26T12:11:08;101757.41;;;24.53;44.22
59513;BME280;45330;51.634;5.562;2023-06-26T12:13:34;101747.66;;;24.53;45.26
59513;BME280;45330;51.634;5.562;2023-06-26T12:15:59;101753.19;;;24.31;46.12
59513;BME280;45330;51.634;5.562;2023-06-26T12:18:25;101761.34;;;24.45;45.13
59513;BME280;45330;51.634;5.562;2023-06-26T12:20:52;101775.56;;;24.63;43.82
59513;BME280;45330;51.634;5.562;2023-06-26T12:23:17;101775.84;;;24.57;42.91
59513;BME280;45330;51.634;5.562;2023-06-26T12:25:43;101774.53;;;24.66;42.96
59513;BME280;45330;51.634;5.562;2023-06-26T12:28:18;101762.38;;;24.78;45.23
59513;BME280;45330;51.634;5.562;2023-06-26T12:30:47;101776.25;;;25.02;44.35
59513;BME280;45330;51.634;5.562;2023-06-26T12:33:14;101756.19;;;25.12;45.62
59513;BME280;45330;51.634;5.562;2023-06-26T12:35:39;101748.28;;;25.11;45.58
59513;BME280;45330;51.634;5.562;2023-06-26T12:38:07;101730.22;;;24.82;45.39
59513;BME280;45330;51.634;5.562;2023-06-26T12:40:35;101737.34;;;24.82;43.86
59513;BME280;45330;51.634;5.562;2023-06-26T12:43:11;101768.81;;;24.91;44.39
59513;BME280;45330;51.634;5.562;2023-06-26T12:45:37;101752.16;;;24.70;45.61
59513;BME280;45330;51.634;5.562;2023-06-26T12:48:10;101748.69;;;24.68;42.77
59513;BME280;45330;51.634;5.562;2023-06-26T12:50:43;101755.50;;;24.74;42.68
59513;BME280;45330;51.634;5.562;2023-06-26T12:53:10;101767.09;;;24.90;42.63
59513;BME280;45330;51.634;5.562;2023-06-26T12:55:36;101762.69;;;25.07;42.86
59513;BME280;45330;51.634;5.562;2023-06-26T12:58:01;101756.19;;;25.28;43.66
59513;BME280;45330;51.634;5.562;2023-06-26T13:00:27;101764.69;;;25.37;43.79
59513;BME280;45330;51.634;5.562;2023-06-26T13:02:52;101760.56;;;25.47;42.20